Time;durP1;ratioP1;P1;durP2;ratioP2;P2;SDS_P1;SDS_P2;PMS_P1;PMS_P2;Temp;Humidity;BMP_temperature;BMP_pressure;BME280_temperature;BME280_humidity;BME280_pressure;Samples;Min_cycle;Max_cycle;Signal;HPM_P1;HPM_P2
2021/04/25 00:01:34;;;;;;;3.70;0.77;;;6.60;99.90;;;;;;5036254;28;20182;-82
2021/04/25 00:04:00;;;;;;;0.50;0.50;;;6.60;99.90;;;;;;5034114;28;20214;-82
2021/04/25 00:06:26;;;;;;;1.63;0.90;;;6.60;99.90;;;;;;5052552;28;20262;-82
2021/04/25 00:08:52;;;;;;;0.70;0.70;;;6.60;99.90;;;;;;5050855;28;20690;-81
2021/04/25 00:11:18;;;;;;;1.07;1.03;;;6.60;99.90;;;;;;5053466;28;21078;-83
2021/04/25 00:13:44;;;;;;;0.50;0.50;;;6.60;99.90;;;;;;5034926;28;20186;-83
2021/04/25 00:16:11;;;;;;;0.40;0.40;;;6.60;99.90;;;;;;5034263;28;20216;-82
2021/04/25 00:18:38;;;;;;;1.03;0.90;;;6.70;99.90;;;;;;5068462;28;20234;-82
2021/04/25 00:21:04;;;;;;;0.43;0.43;;;6.70;99.90;;;;;;5053632;28;20214;-84
2021/04/25 00:23:30;;;;;;;3.77;0.90;;;6.70;99.90;;;;;;5035657;28;20278;-82
2021/04/25 00:25:57;;;;;;;0.60;0.60;;;6.70;99.90;;;;;;5033056;28;20205;-82
2021/04/25 00:28:22;;;;;;;3.30;1.33;;;6.70;99.90;;;;;;5052086;28;20583;-82
2021/04/25 00:30:48;;;;;;;3.30;1.30;;;6.70;99.90;;;;;;5053458;28;20226;-81
2021/04/25 00:33:14;;;;;;;1.67;1.27;;;6.70;99.90;;;;;;5052415;28;20641;-82
2021/04/25 00:35:40;;;;;;;0.97;0.87;;;6.70;99.90;;;;;;5033322;28;20214;-84
2021/04/25 00:38:05;;;;;;;3.37;0.80;;;6.60;99.90;;;;;;5054157;28;21339;-81
2021/04/25 00:40:31;;;;;;;1.73;0.83;;;6.60;99.90;;;;;;5052537;28;20226;-81
2021/04/25 00:42:57;;;;;;;1.20;1.10;;;6.60;99.90;;;;;;5018935;28;20225;-81
2021/04/25 00:45:23;;;;;;;1.23;0.90;;;6.60;99.90;;;;;;5049695;28;20358;-82
2021/04/25 00:47:50;;;;;;;2.67;2.03;;;6.60;99.90;;;;;;5052995;28;21142;-81
2021/04/25 00:50:19;;;;;;;1.00;1.00;;;6.60;99.90;;;;;;5030227;28;20185;-82
2021/04/25 00:52:47;;;;;;;1.10;0.77;;;6.60;99.90;;;;;;5057006;28;20193;-82
2021/04/25 00:55:14;;;;;;;1.10;1.10;;;6.60;99.90;;;;;;5072233;28;20707;-82
2021/04/25 00:57:40;;;;;;;3.47;1.40;;;6.60;99.90;;;;;;5052549;28;20241;-81
2021/04/25 01:00:09;;;;;;;2.50;0.90;;;6.60;99.90;;;;;;5038164;28;20228;-82
2021/04/25 01:02:35;;;;;;;6.40;1.30;;;6.70;99.90;;;;;;5032176;28;20217;-82
2021/04/25 01:05:04;;;;;;;0.63;0.63;;;6.70;99.90;;;;;;5049110;28;20206;-84
2021/04/25 01:07:29;;;;;;;1.23;1.07;;;6.70;99.90;;;;;;5069695;28;20221;-82
2021/04/25 01:09:55;;;;;;;1.90;1.30;;;6.70;99.90;;;;;;5037889;28;20224;-82
2021/04/25 01:12:22;;;;;;;0.77;0.77;;;6.70;99.90;;;;;;5019497;28;20227;-83
2021/04/25 01:14:48;;;;;;;1.37;1.27;;;6.80;99.90;;;;;;5037282;28;20216;-82
2021/04/25 01:17:13;;;;;;;1.60;1.40;;;6.80;99.90;;;;;;5039048;28;21003;-83
2021/04/25 01:19:39;;;;;;;1.30;1.20;;;6.80;99.90;;;;;;5035882;28;20663;-82
2021/04/25 01:22:06;;;;;;;0.90;0.90;;;6.70;99.90;;;;;;5031655;28;20213;-85
2021/04/25 01:24:32;;;;;;;0.60;0.60;;;6.70;99.90;;;;;;5033608;28;20249;-82
2021/04/25 01:26:57;;;;;;;2.53;2.33;;;6.60;99.90;;;;;;5020901;28;20758;-82
2021/04/25 01:29:24;;;;;;;2.00;1.90;;;6.60;99.90;;;;;;5038266;28;20999;-82
2021/04/25 01:31:49;;;;;;;1.47;1.37;;;6.60;99.90;;;;;;5022039;28;20275;-82
2021/04/25 01:34:15;;;;;;;2.83;1.27;;;6.60;99.90;;;;;;5034412;28;20227;-82
2021/04/25 01:36:41;;;;;;;0.77;0.77;;;6.50;99.90;;;;;;5054568;28;20209;-84
2021/04/25 01:39:07;;;;;;;2.27;1.13;;;6.50;99.90;;;;;;5053555;28;20220;-82
2021/04/25 01:41:33;;;;;;;1.27;0.90;;;6.50;99.90;;;;;;5034690;28;20248;-82
2021/04/25 01:44:00;;;;;;;1.57;0.77;;;6.50;99.90;;;;;;5054407;28;20208;-82
2021/04/25 01:46:25;;;;;;;2.20;1.17;;;6.50;99.90;;;;;;5055250;28;20225;-82
2021/04/25 01:48:51;;;;;;;1.17;1.03;;;6.50;99.90;;;;;;5034683;28;20291;-83
2021/04/25 01:51:17;;;;;;;1.13;1.13;;;6.50;99.90;;;;;;5032676;28;20213;-82
2021/04/25 01:53:43;;;;;;;0.80;0.80;;;6.50;99.90;;;;;;5050981;28;20232;-82
2021/04/25 01:56:09;;;;;;;1.70;0.77;;;6.60;99.90;;;;;;5035665;28;20728;-82
2021/04/25 01:58:34;;;;;;;10.50;1.03;;;6.50;99.90;;;;;;5033823;28;20200;-82
2021/04/25 02:01:00;;;;;;;13.13;1.00;;;6.50;99.90;;;;;;5050098;28;21355;-84
2021/04/25 02:03:26;;;;;;;0.57;0.50;;;6.50;99.90;;;;;;5048419;28;20221;-82
2021/04/25 02:05:53;;;;;;;7.80;1.10;;;6.50;99.90;;;;;;5049709;28;20298;-81
2021/04/25 02:08:19;;;;;;;0.40;0.40;;;6.40;99.90;;;;;;5049968;28;20260;-83
2021/04/25 02:10:46;;;;;;;0.60;0.60;;;6.40;99.90;;;;;;5052857;28;20189;-82
2021/04/25 02:13:12;;;;;;;3.77;0.87;;;6.40;99.90;;;;;;5051528;28;20237;-83
2021/04/25 02:15:39;;;;;;;0.93;0.93;;;6.40;99.90;;;;;;5047217;28;20796;-82
2021/04/25 02:18:06;;;;;;;0.30;0.30;;;6.50;99.90;;;;;;5048397;28;20235;-81
2021/04/25 02:20:32;;;;;;;0.53;0.53;;;6.40;99.90;;;;;;5030164;28;20228;-83
2021/04/25 02:22:58;;;;;;;0.77;0.77;;;6.40;99.90;;;;;;5044848;28;21274;-84
2021/04/25 02:25:24;;;;;;;0.47;0.47;;;6.40;99.90;;;;;;5042860;28;20217;-82
2021/04/25 02:27:50;;;;;;;0.93;0.93;;;6.40;99.90;;;;;;5046023;28;20257;-81
2021/04/25 02:30:30;;;;;;;0.67;0.67;;;6.40;99.90;;;;;;5045554;28;20257;-82
2021/04/25 02:32:57;;;;;;;1.00;0.90;;;6.40;99.90;;;;;;5046332;28;20227;-83
2021/04/25 02:35:25;;;;;;;1.40;0.47;;;6.50;99.90;;;;;;5048942;28;20255;-81
2021/04/25 02:37:51;;;;;;;0.50;0.50;;;6.50;99.90;;;;;;5038015;28;20347;-83
2021/04/25 02:40:21;;;;;;;3.00;1.17;;;6.50;99.90;;;;;;5035586;28;20217;-82
2021/04/25 02:42:47;;;;;;;1.07;1.07;;;6.50;99.90;;;;;;5055226;28;20639;-82
2021/04/25 02:45:15;;;;;;;11.43;1.53;;;6.50;99.90;;;;;;5037155;28;20231;-83
2021/04/25 02:47:47;;;;;;;0.50;0.50;;;6.40;99.90;;;;;;5053745;28;20217;-81
2021/04/25 02:50:16;;;;;;;3.30;0.60;;;6.40;99.90;;;;;;5056779;28;20217;-81
2021/04/25 02:52:41;;;;;;;2.17;0.50;;;6.40;99.90;;;;;;5037902;28;20197;-85
2021/04/25 02:55:09;;;;;;;0.80;0.80;;;6.40;99.90;;;;;;5056281;28;20577;-82
2021/04/25 02:57:34;;;;;;;2.67;0.60;;;6.40;99.90;;;;;;5039132;28;20240;-81
2021/04/25 03:00:00;;;;;;;0.50;0.50;;;6.40;99.90;;;;;;5039673;28;20633;-81
2021/04/25 03:02:26;;;;;;;3.90;1.77;;;6.40;99.90;;;;;;5056327;28;20227;-81
2021/04/25 03:04:52;;;;;;;0.37;0.37;;;6.40;99.90;;;;;;5041828;28;20188;-80
2021/04/25 03:07:18;;;;;;;1.93;0.97;;;6.40;99.90;;;;;;5039068;28;21461;-84
2021/04/25 03:09:44;;;;;;;0.33;0.30;;;6.40;99.90;;;;;;5055189;28;20327;-84
2021/04/25 03:12:10;;;;;;;0.50;0.50;;;6.40;99.90;;;;;;5055961;28;20223;-84
2021/04/25 03:14:36;;;;;;;1.17;0.50;;;6.40;99.90;;;;;;5040880;28;20224;-82
2021/04/25 03:17:02;;;;;;;0.60;0.60;;;6.40;99.90;;;;;;5038619;28;20182;-83
2021/04/25 03:19:27;;;;;;;2.50;0.90;;;6.40;99.90;;;;;;5048432;28;20225;-82
2021/04/25 03:21:53;;;;;;;0.40;0.40;;;6.40;99.90;;;;;;5017993;28;20216;-83
2021/04/25 03:24:19;;;;;;;1.03;1.03;;;6.40;99.90;;;;;;5018561;28;20225;-82
2021/04/25 03:26:46;;;;;;;2.73;0.80;;;6.40;99.90;;;;;;5037145;28;20228;-83
2021/04/25 03:29:12;;;;;;;6.03;0.40;;;6.40;99.90;;;;;;5037578;28;20209;-84
2021/04/25 03:31:38;;;;;;;1.63;0.63;;;6.40;99.90;;;;;;5039245;28;20234;-83
2021/04/25 03:34:04;;;;;;;5.50;0.40;;;6.40;99.90;;;;;;5038421;28;20267;-83
2021/04/25 03:36:29;;;;;;;0.20;0.20;;;6.40;99.90;;;;;;5037627;28;20208;-83
2021/04/25 03:38:55;;;;;;;2.83;1.70;;;6.40;99.90;;;;;;5022332;28;20212;-83
2021/04/25 03:41:22;;;;;;;0.40;0.40;;;6.40;99.90;;;;;;5038571;28;20190;-83
2021/04/25 03:43:47;;;;;;;2.67;2.03;;;6.40;99.90;;;;;;5057690;28;20239;-82
2021/04/25 03:46:13;;;;;;;1.27;0.83;;;6.50;99.90;;;;;;5020871;28;20238;-83
2021/04/25 03:48:39;;;;;;;1.40;0.70;;;6.50;99.90;;;;;;5021538;28;20237;-84
2021/04/25 03:51:05;;;;;;;2.17;0.50;;;6.60;99.90;;;;;;5038314;28;20213;-84
2021/04/25 03:53:31;;;;;;;0.30;0.30;;;6.50;99.90;;;;;;5071188;28;20265;-85
2021/04/25 03:55:57;;;;;;;1.20;1.03;;;6.50;99.90;;;;;;5038737;28;20189;-83
2021/04/25 03:58:22;;;;;;;18.13;1.03;;;6.50;99.90;;;;;;5055019;28;21066;-83
2021/04/25 04:00:48;;;;;;;0.77;0.47;;;6.60;99.90;;;;;;5039195;28;20224;-83
2021/04/25 04:03:14;;;;;;;2.63;0.80;;;6.50;99.90;;;;;;5039372;28;20212;-83
2021/04/25 04:05:39;;;;;;;0.70;0.40;;;6.60;99.90;;;;;;5054401;28;21330;-84
2021/04/25 04:08:05;;;;;;;1.87;0.90;;;6.50;99.90;;;;;;5040516;28;20260;-83
2021/04/25 04:10:31;;;;;;;9.00;1.20;;;6.50;99.90;;;;;;5056997;28;21046;-85
2021/04/25 04:12:57;;;;;;;2.37;0.50;;;6.50;99.90;;;;;;5023127;28;20700;-82
2021/04/25 04:15:22;;;;;;;21.60;2.30;;;6.50;99.90;;;;;;5057551;28;20630;-82
2021/04/25 04:17:48;;;;;;;3.87;1.33;;;6.50;99.90;;;;;;5040970;28;20213;-83
2021/04/25 04:20:14;;;;;;;0.33;0.33;;;6.60;99.90;;;;;;5034983;28;20215;-82
2021/04/25 04:22:40;;;;;;;0.57;0.57;;;6.60;99.90;;;;;;5036929;28;20259;-83
2021/04/25 04:25:06;;;;;;;0.30;0.30;;;6.50;99.90;;;;;;5034454;28;20261;-83
2021/04/25 04:27:32;;;;;;;0.30;0.30;;;6.50;99.90;;;;;;5053962;28;20381;-83
2021/04/25 04:29:58;;;;;;;0.50;0.50;;;6.50;99.90;;;;;;5053722;28;20735;-84
2021/04/25 04:32:23;;;;;;;2.57;1.13;;;6.50;99.90;;;;;;5035563;28;20185;-82
2021/04/25 04:34:49;;;;;;;0.40;0.40;;;6.50;99.90;;;;;;5040044;28;20943;-83
2021/04/25 04:37:15;;;;;;;0.63;0.37;;;6.50;99.90;;;;;;5036803;28;20644;-82
2021/04/25 04:39:40;;;;;;;0.73;0.70;;;6.50;99.90;;;;;;5038233;28;20775;-82
2021/04/25 04:42:06;;;;;;;0.73;0.60;;;6.50;99.90;;;;;;5072014;28;21138;-82
2021/04/25 04:44:32;;;;;;;8.70;0.83;;;6.50;99.90;;;;;;5037297;28;20239;-81
2021/04/25 04:46:58;;;;;;;0.70;0.70;;;6.50;99.90;;;;;;5072143;28;20279;-84
2021/04/25 04:49:24;;;;;;;0.60;0.60;;;6.50;99.90;;;;;;5033723;28;20242;-82
2021/04/25 04:51:49;;;;;;;0.83;0.53;;;6.60;99.90;;;;;;5051312;28;20252;-82
2021/04/25 04:54:15;;;;;;;0.57;0.53;;;6.60;99.90;;;;;;5049807;28;20562;-82
2021/04/25 04:56:41;;;;;;;2.67;0.77;;;6.70;99.90;;;;;;5026340;28;20237;-82
2021/04/25 04:59:07;;;;;;;0.67;0.67;;;6.70;99.90;;;;;;5066195;28;20196;-84
2021/04/25 05:01:33;;;;;;;1.63;1.43;;;6.70;99.90;;;;;;5052688;28;20600;-82
2021/04/25 05:03:59;;;;;;;0.80;0.80;;;6.70;99.90;;;;;;5017866;28;20336;-82
2021/04/25 05:06:25;;;;;;;8.90;0.97;;;6.70;99.90;;;;;;5016709;28;20303;-83
2021/04/25 05:08:50;;;;;;;0.70;0.70;;;6.80;99.90;;;;;;5032861;28;20691;-82
2021/04/25 05:11:16;;;;;;;1.33;0.90;;;6.80;99.90;;;;;;5024416;28;21145;-83
2021/04/25 05:13:42;;;;;;;0.73;0.73;;;6.80;99.90;;;;;;5052130;28;20198;-82
2021/04/25 05:16:08;;;;;;;1.40;1.40;;;6.80;99.90;;;;;;5050483;28;20744;-83
2021/04/25 05:18:34;;;;;;;0.70;0.67;;;6.80;99.90;;;;;;5018116;28;20256;-82
2021/04/25 05:21:00;;;;;;;1.23;0.80;;;6.80;99.90;;;;;;5048102;28;20591;-82
2021/04/25 05:23:26;;;;;;;1.67;0.90;;;6.80;99.90;;;;;;5052460;28;23464;-83
2021/04/25 05:25:51;;;;;;;1.30;0.60;;;6.80;99.90;;;;;;5036386;28;20655;-82
2021/04/25 05:28:17;;;;;;;0.73;0.47;;;6.80;99.90;;;;;;5034150;28;20730;-83
2021/04/25 05:30:43;;;;;;;1.50;0.60;;;6.80;99.90;;;;;;5018324;28;20221;-83
2021/04/25 05:33:08;;;;;;;1.90;1.33;;;6.80;99.90;;;;;;5034452;28;20213;-82
2021/04/25 05:35:34;;;;;;;0.70;0.50;;;6.90;99.90;;;;;;5018788;28;20221;-83
2021/04/25 05:38:00;;;;;;;0.40;0.40;;;6.90;99.90;;;;;;5035765;28;20675;-82
2021/04/25 05:40:26;;;;;;;2.50;0.80;;;6.90;99.90;;;;;;5031937;28;20708;-83
2021/04/25 05:42:51;;;;;;;0.40;0.40;;;6.90;99.90;;;;;;5046307;28;20595;-82
2021/04/25 05:45:20;;;;;;;3.50;1.30;;;6.90;99.90;;;;;;5045834;28;20214;-82
2021/04/25 05:47:54;;;;;;;4.50;0.87;;;7.00;99.90;;;;;;5029498;28;20223;-83
2021/04/25 05:50:21;;;;;;;3.17;2.10;;;6.90;99.90;;;;;;5045544;28;20244;-83
2021/04/25 05:52:48;;;;;;;0.90;0.67;;;6.90;99.90;;;;;;5027437;28;20213;-84
2021/04/25 05:55:14;;;;;;;8.30;1.10;;;7.00;99.90;;;;;;5046026;28;20249;-84
2021/04/25 05:57:40;;;;;;;1.20;0.60;;;7.00;99.90;;;;;;5030429;28;20217;-82
2021/04/25 06:00:08;;;;;;;0.97;0.50;;;7.00;99.90;;;;;;5047954;28;20229;-84
2021/04/25 06:02:34;;;;;;;4.93;1.70;;;7.00;99.90;;;;;;5026800;28;20217;-85
2021/04/25 06:05:00;;;;;;;4.67;0.60;;;7.00;99.90;;;;;;5046384;28;20185;-82
2021/04/25 06:07:26;;;;;;;1.23;0.57;;;7.10;99.90;;;;;;5027871;28;20233;-84
2021/04/25 06:09:52;;;;;;;0.93;0.93;;;7.10;99.90;;;;;;5031206;28;20217;-83
2021/04/25 06:12:18;;;;;;;1.50;1.50;;;7.10;99.90;;;;;;5030688;28;21261;-82
2021/04/25 06:14:44;;;;;;;0.30;0.30;;;7.20;99.90;;;;;;5048176;28;20218;-84
2021/04/25 06:17:10;;;;;;;5.07;1.37;;;7.20;99.90;;;;;;5051122;28;20243;-83
2021/04/25 06:19:36;;;;;;;1.67;0.60;;;7.20;99.90;;;;;;5049329;28;20197;-83
2021/04/25 06:22:04;;;;;;;3.37;1.30;;;7.30;99.90;;;;;;5039667;28;20213;-85
2021/04/25 06:24:30;;;;;;;0.87;0.60;;;7.30;99.90;;;;;;5068647;28;20216;-83
2021/04/25 06:26:56;;;;;;;1.50;1.07;;;7.30;99.90;;;;;;5065918;28;21195;-83
2021/04/25 06:29:21;;;;;;;2.33;0.97;;;7.30;99.90;;;;;;5031728;28;20212;-82
2021/04/25 06:31:47;;;;;;;2.77;1.10;;;7.40;99.90;;;;;;5033467;28;20263;-82
2021/04/25 06:34:13;;;;;;;3.23;0.60;;;7.40;99.90;;;;;;5031602;28;20230;-85
2021/04/25 06:36:41;;;;;;;13.80;1.80;;;7.40;99.90;;;;;;5031969;28;20693;-83
2021/04/25 06:39:09;;;;;;;8.47;0.63;;;7.40;99.90;;;;;;5049711;28;20228;-84
2021/04/25 06:41:34;;;;;;;0.37;0.37;;;7.40;99.90;;;;;;5050065;28;20228;-83
2021/04/25 06:44:00;;;;;;;6.27;1.27;;;7.40;99.90;;;;;;5050593;28;20190;-84
2021/04/25 06:46:27;;;;;;;0.77;0.67;;;7.40;99.90;;;;;;5032980;28;20221;-82
2021/04/25 06:48:53;;;;;;;0.87;0.57;;;7.40;99.90;;;;;;5048509;28;20747;-82
2021/04/25 06:51:19;;;;;;;1.83;0.77;;;7.40;99.90;;;;;;5031990;28;20228;-82
2021/04/25 06:53:45;;;;;;;0.40;0.40;;;7.50;99.90;;;;;;5031465;28;20217;-82
2021/04/25 06:56:11;;;;;;;0.70;0.67;;;7.50;99.90;;;;;;5032756;28;20239;-83
2021/04/25 06:58:36;;;;;;;8.53;2.30;;;7.50;99.90;;;;;;5032153;28;20186;-81
2021/04/25 07:01:03;;;;;;;1.63;0.60;;;7.60;99.90;;;;;;5048470;28;20226;-83
2021/04/25 07:03:28;;;;;;;0.33;0.33;;;7.60;99.90;;;;;;5042282;28;20279;-87
2021/04/25 07:05:54;;;;;;;2.87;2.13;;;7.90;99.90;;;;;;5042955;28;20234;-86
2021/04/25 07:08:23;;;;;;;1.73;0.70;;;8.00;99.90;;;;;;5026685;28;21361;-86
2021/04/25 07:10:53;;;;;;;0.70;0.70;;;8.10;99.90;;;;;;5047763;28;20519;-88
2021/04/25 07:13:21;;;;;;;2.67;0.57;;;8.00;99.90;;;;;;5029195;28;20228;-85
2021/04/25 07:15:47;;;;;;;1.73;0.47;;;7.90;99.90;;;;;;5049880;28;20214;-87
2021/04/25 07:18:13;;;;;;;0.47;0.47;;;7.90;99.90;;;;;;5029587;28;20913;-86
2021/04/25 07:20:39;;;;;;;4.03;0.87;;;7.90;99.90;;;;;;5030597;28;20232;-86
2021/04/25 07:23:05;;;;;;;0.80;0.80;;;7.80;99.90;;;;;;5049567;28;20313;-87
2021/04/25 07:25:31;;;;;;;0.40;0.37;;;7.80;99.90;;;;;;5052644;28;21178;-87
2021/04/25 07:27:57;;;;;;;2.20;0.83;;;7.70;99.90;;;;;;5032309;28;20213;-86
2021/04/25 07:30:23;;;;;;;0.70;0.70;;;7.80;99.90;;;;;;5033632;28;20779;-88
2021/04/25 07:32:49;;;;;;;3.37;0.87;;;7.70;99.90;;;;;;5050415;28;20301;-86
2021/04/25 07:35:16;;;;;;;0.63;0.63;;;7.80;99.90;;;;;;5051939;28;20204;-85
2021/04/25 07:37:43;;;;;;;4.73;0.80;;;7.80;99.90;;;;;;5056258;28;20566;-85
2021/04/25 07:40:10;;;;;;;7.53;1.00;;;7.90;99.90;;;;;;5051686;28;20253;-85
2021/04/25 07:42:37;;;;;;;4.10;0.73;;;7.90;99.90;;;;;;5053488;28;20283;-85
2021/04/25 07:45:05;;;;;;;0.67;0.67;;;7.90;99.90;;;;;;5052171;28;20224;-85
2021/04/25 07:47:31;;;;;;;1.27;0.40;;;7.90;99.90;;;;;;5051417;28;20847;-86
2021/04/25 07:49:57;;;;;;;0.60;0.53;;;7.70;99.90;;;;;;5033292;28;20241;-85
2021/04/25 07:52:23;;;;;;;3.13;1.00;;;7.70;99.90;;;;;;5046725;28;20233;-85
2021/04/25 07:54:49;;;;;;;0.60;0.60;;;7.80;99.90;;;;;;5052746;28;20751;-86
2021/04/25 07:57:14;;;;;;;1.57;1.10;;;7.90;99.90;;;;;;5049167;28;20732;-83
2021/04/25 07:59:40;;;;;;;2.80;0.53;;;7.80;99.90;;;;;;5045213;28;20329;-84
2021/04/25 08:02:06;;;;;;;0.60;0.30;;;7.90;99.90;;;;;;5012501;28;20182;-86
2021/04/25 08:04:31;;;;;;;3.13;0.60;;;7.80;99.90;;;;;;5030732;28;20216;-85
2021/04/25 08:06:57;;;;;;;2.50;0.83;;;7.80;99.90;;;;;;5052985;28;21077;-85
2021/04/25 08:09:23;;;;;;;3.00;1.50;;;7.90;99.90;;;;;;5016383;28;20232;-85
2021/04/25 08:11:49;;;;;;;5.63;1.20;;;7.90;99.90;;;;;;5047319;28;20221;-84
2021/04/25 08:14:15;;;;;;;2.30;0.93;;;8.00;99.90;;;;;;5050641;28;20182;-85
2021/04/25 08:16:40;;;;;;;4.33;0.77;;;8.00;99.90;;;;;;5032462;28;20189;-85
2021/04/25 08:19:08;;;;;;;3.43;2.00;;;7.90;99.90;;;;;;5025651;28;20214;-85
2021/04/25 08:21:34;;;;;;;0.87;0.47;;;8.00;99.90;;;;;;5018758;28;20233;-85
2021/04/25 08:24:00;;;;;;;5.83;0.97;;;8.00;99.90;;;;;;5033274;28;20309;-84
2021/04/25 08:26:26;;;;;;;4.30;0.57;;;8.00;99.90;;;;;;5066777;28;20696;-84
2021/04/25 08:28:52;;;;;;;0.30;0.30;;;7.90;99.90;;;;;;5051079;28;20214;-86
2021/04/25 08:31:18;;;;;;;4.00;1.00;;;7.90;99.90;;;;;;5048813;28;20303;-88
2021/04/25 08:33:43;;;;;;;0.67;0.50;;;7.90;99.90;;;;;;5016543;28;20238;-88
2021/04/25 08:36:09;;;;;;;3.17;1.10;;;8.10;99.90;;;;;;5050917;28;20291;-87
2021/04/25 08:38:35;;;;;;;0.80;0.80;;;8.20;99.90;;;;;;5049576;28;20230;-86
2021/04/25 08:41:03;;;;;;;0.33;0.33;;;8.20;99.90;;;;;;5037028;28;20685;-87
2021/04/25 08:43:29;;;;;;;2.87;0.67;;;8.20;99.90;;;;;;5048030;28;21049;-86
2021/04/25 08:45:57;;;;;;;1.47;1.47;;;8.30;99.90;;;;;;5050260;28;20354;-87
2021/04/25 08:48:26;;;;;;;1.17;0.70;;;8.30;99.90;;;;;;5050341;28;20363;-85
2021/04/25 08:50:52;;;;;;;6.80;0.80;;;8.40;99.90;;;;;;5035644;28;20213;-85
2021/04/25 08:53:21;;;;;;;1.30;0.90;;;8.50;99.90;;;;;;5052881;28;20226;-85
2021/04/25 08:55:48;;;;;;;2.13;0.87;;;8.60;99.90;;;;;;5068875;28;20209;-88
2021/04/25 08:58:14;;;;;;;5.70;1.50;;;8.50;99.90;;;;;;5045575;28;20213;-85
2021/04/25 09:00:40;;;;;;;0.50;0.50;;;8.50;99.90;;;;;;5052621;28;21054;-87
2021/04/25 09:03:06;;;;;;;1.50;0.80;;;8.60;99.90;;;;;;5052870;28;20266;-85
2021/04/25 09:05:33;;;;;;;1.37;0.90;;;8.80;99.90;;;;;;5054180;28;20225;-86
2021/04/25 09:08:04;;;;;;;0.40;0.40;;;8.70;99.90;;;;;;5050596;28;20184;-85
2021/04/25 09:10:36;;;;;;;0.50;0.50;;;8.80;99.90;;;;;;5050513;28;20355;-85
2021/04/25 09:13:24;;;;;;;3.47;0.83;;;8.70;99.90;;;;;;5036626;28;20217;-85
2021/04/25 09:15:55;;;;;;;1.23;1.00;;;8.70;99.90;;;;;;5052228;28;20224;-84
2021/04/25 09:18:36;;;;;;;0.67;0.60;;;8.70;99.90;;;;;;5070456;28;20235;-85
2021/04/25 09:21:12;;;;;;;2.40;0.40;;;8.80;99.90;;;;;;5037288;28;20289;-86
2021/04/25 09:23:40;;;;;;;3.67;1.07;;;8.90;99.90;;;;;;5053405;28;20294;-85
2021/04/25 09:26:06;;;;;;;3.60;0.60;;;9.00;99.90;;;;;;5056003;28;20227;-87
2021/04/25 09:28:34;;;;;;;1.23;0.90;;;9.10;99.90;;;;;;5044649;28;20232;-85
2021/04/25 09:31:05;;;;;;;1.10;1.10;;;9.30;99.90;;;;;;5052869;28;20234;-85
2021/04/25 09:33:55;;;;;;;8.03;0.70;;;9.50;99.90;;;;;;5048880;28;20220;-85
2021/04/25 09:36:23;;;;;;;2.67;1.07;;;9.60;99.90;;;;;;5051437;28;21211;-85
2021/04/25 09:38:53;;;;;;;1.07;0.73;;;9.70;99.90;;;;;;5054376;28;20230;-84
2021/04/25 09:41:32;;;;;;;0.80;0.80;;;9.80;99.90;;;;;;5050642;28;20189;-87
2021/04/25 09:43:59;;;;;;;1.67;0.63;;;9.70;99.90;;;;;;5036688;28;20556;-87
2021/04/25 09:46:45;;;;;;;2.70;0.57;;;9.60;99.90;;;;;;5049804;28;20221;-85
2021/04/25 09:49:11;;;;;;;0.47;0.47;;;9.70;99.90;;;;;;5066265;28;20267;-86
2021/04/25 09:51:42;;;;;;;3.97;2.00;;;9.60;99.90;;;;;;5019988;28;20821;-85
2021/04/25 09:54:08;;;;;;;2.97;0.83;;;9.70;99.90;;;;;;5052382;28;20225;-86
2021/04/25 09:56:33;;;;;;;3.27;0.57;;;9.10;99.90;;;;;;5051722;28;20670;-85
2021/04/25 09:59:00;;;;;;;4.37;0.67;;;9.00;99.90;;;;;;5053917;28;20209;-85
2021/04/25 10:01:30;;;;;;;0.50;0.50;;;9.20;99.90;;;;;;5054387;28;20243;-86
2021/04/25 10:03:57;;;;;;;1.13;0.70;;;9.50;99.90;;;;;;5043275;28;20216;-84
2021/04/25 10:06:23;;;;;;;0.27;0.27;;;9.90;99.90;;;;;;5035668;28;20221;-85
2021/04/25 10:08:50;;;;;;;5.43;0.80;;;10.10;99.90;;;;;;5050145;28;20275;-85
2021/04/25 10:11:18;;;;;;;1.00;0.70;;;10.10;99.90;;;;;;5035684;28;20870;-86
2021/04/25 10:13:45;;;;;;;0.77;0.63;;;10.20;99.90;;;;;;5054285;28;20268;-85
2021/04/25 10:16:16;;;;;;;0.70;0.67;;;10.30;99.90;;;;;;5033920;28;20741;-85
2021/04/25 10:18:42;;;;;;;1.23;0.63;;;10.60;99.90;;;;;;5032815;28;20224;-85
2021/04/25 10:21:08;;;;;;;1.43;1.30;;;10.50;99.90;;;;;;5038348;28;20247;-86
2021/04/25 10:23:34;;;;;;;0.43;0.43;;;10.80;99.90;;;;;;5031041;28;20217;-88
2021/04/25 10:26:07;;;;;;;0.27;0.27;;;10.80;99.90;;;;;;5051225;28;20180;-88
2021/04/25 10:28:45;;;;;;;2.97;0.80;;;11.70;99.90;;;;;;5032266;28;20716;-85
2021/04/25 10:31:20;;;;;;;1.50;1.13;;;11.20;99.90;;;;;;5051118;28;20301;-87
2021/04/25 10:34:02;;;;;;;1.33;0.70;;;11.00;99.90;;;;;;5071301;28;20222;-85
2021/04/25 10:36:47;;;;;;;2.43;0.63;;;10.80;99.90;;;;;;5066271;28;20212;-87
2021/04/25 10:39:34;;;;;;;0.50;0.50;;;10.60;99.90;;;;;;5051551;28;20663;-88
2021/04/25 10:42:28;;;;;;;1.60;0.63;;;10.20;99.90;;;;;;5051543;28;20271;-86
2021/04/25 10:44:57;;;;;;;2.23;0.60;;;10.20;99.90;;;;;;5067100;28;20696;-88
2021/04/25 10:47:31;;;;;;;3.17;0.90;;;10.00;99.90;;;;;;5070142;28;20200;-87
2021/04/25 10:50:00;;;;;;;0.90;0.90;;;10.50;99.90;;;;;;5073245;28;20271;-86
2021/04/25 10:52:30;;;;;;;2.40;0.70;;;11.80;99.90;;;;;;5050402;28;20315;-86
2021/04/25 10:55:11;;;;;;;1.13;0.77;;;11.80;99.90;;;;;;5055676;28;20581;-85
2021/04/25 10:57:53;;;;;;;4.20;0.70;;;11.10;99.90;;;;;;5054178;28;20224;-86
2021/04/25 11:00:31;;;;;;;1.10;1.10;;;10.60;99.90;;;;;;5055960;28;20916;-88
2021/04/25 11:03:01;;;;;;;1.93;0.43;;;10.50;99.90;;;;;;5073701;28;20243;-87
2021/04/25 11:05:35;;;;;;;2.77;1.50;;;10.70;99.90;;;;;;5055737;28;20694;-90
2021/04/25 11:08:14;;;;;;;1.30;0.53;;;11.10;99.90;;;;;;5058471;28;20262;-87
2021/04/25 11:10:54;;;;;;;1.30;1.07;;;11.20;99.90;;;;;;5065529;28;20560;-87
2021/04/25 11:13:46;;;;;;;0.57;0.40;;;12.20;99.90;;;;;;5074566;28;20244;-87
2021/04/25 11:16:18;;;;;;;1.67;1.07;;;12.10;99.90;;;;;;5040483;28;20225;-86
2021/04/25 11:18:48;;;;;;;2.40;1.23;;;11.80;99.90;;;;;;5057855;28;20239;-86
2021/04/25 11:23:58;;;;;;;0.87;0.67;;;11.50;99.90;;;;;;5076121;28;20224;-87
2021/04/25 11:26:36;;;;;;;1.23;0.40;;;11.10;99.90;;;;;;5056422;28;20185;-85
2021/04/25 11:29:12;;;;;;;0.77;0.60;;;11.40;99.90;;;;;;5056659;28;20223;-88
2021/04/25 11:34:25;;;;;;;2.93;0.67;;;11.30;99.90;;;;;;5075438;28;20213;-86
2021/04/25 11:36:51;;;;;;;0.80;0.80;;;11.00;99.90;;;;;;5044520;28;20232;-85
2021/04/25 11:39:19;;;;;;;3.83;0.90;;;11.00;99.90;;;;;;5055137;28;20213;-87
2021/04/25 11:41:47;;;;;;;3.40;0.80;;;11.90;99.90;;;;;;5071497;28;20217;-86
2021/04/25 11:44:22;;;;;;;3.23;0.97;;;12.00;99.90;;;;;;5058262;28;20256;-86
2021/04/25 11:46:48;;;;;;;2.93;0.43;;;11.50;99.90;;;;;;5042391;28;20184;-86
2021/04/25 11:49:14;;;;;;;1.63;1.10;;;11.20;99.90;;;;;;5039108;28;20251;-88
2021/04/25 11:51:40;;;;;;;0.93;0.83;;;11.40;99.90;;;;;;5036637;28;20225;-85
2021/04/25 11:54:26;;;;;;;4.73;1.17;;;12.20;99.90;;;;;;5052535;28;20693;-87
2021/04/25 11:56:51;;;;;;;0.40;0.40;;;11.90;99.90;;;;;;5051549;28;20249;-90
2021/04/25 11:59:17;;;;;;;0.67;0.67;;;11.20;99.90;;;;;;5051473;28;20304;-86
2021/04/25 12:01:43;;;;;;;0.80;0.70;;;11.60;99.90;;;;;;5053060;28;20189;-88
2021/04/25 12:04:08;;;;;;;1.43;0.87;;;11.50;99.90;;;;;;5035775;28;20316;-89
2021/04/25 12:06:48;;;;;;;1.07;0.90;;;12.10;99.90;;;;;;5022321;28;20224;-90
2021/04/25 12:09:15;;;;;;;3.07;1.20;;;11.90;99.90;;;;;;5036682;28;20255;-87
2021/04/25 12:11:42;;;;;;;0.90;0.73;;;11.70;99.90;;;;;;5056766;28;20219;-83
2021/04/25 12:14:20;;;;;;;1.40;1.00;;;11.30;99.90;;;;;;5056599;28;20205;-84
2021/04/25 12:16:46;;;;;;;26.37;1.20;;;11.40;99.90;;;;;;5055506;28;20211;-85
2021/04/25 12:19:26;;;;;;;3.17;0.83;;;11.40;99.90;;;;;;5035307;28;20681;-85
2021/04/25 12:22:01;;;;;;;1.20;0.73;;;11.30;99.90;;;;;;5055215;28;20300;-85
2021/04/25 12:24:27;;;;;;;0.73;0.70;;;11.30;99.90;;;;;;5050821;28;20236;-82
2021/04/25 12:26:52;;;;;;;1.90;0.67;;;11.30;99.90;;;;;;5050016;28;20789;-85
2021/04/25 12:29:33;;;;;;;4.00;0.70;;;11.10;99.90;;;;;;5021984;28;20217;-85
2021/04/25 12:31:59;;;;;;;1.50;0.73;;;11.70;99.90;;;;;;5056087;28;20190;-85
2021/04/25 12:34:28;;;;;;;1.77;1.17;;;11.60;99.90;;;;;;5039884;28;20570;-85
2021/04/25 12:36:54;;;;;;;3.90;0.63;;;11.10;99.90;;;;;;5038495;28;20225;-87
2021/04/25 12:39:20;;;;;;;2.47;0.43;;;11.50;99.90;;;;;;5032981;28;20753;-86
2021/04/25 12:41:55;;;;;;;3.67;0.70;;;11.70;99.90;;;;;;5031281;28;20220;-87
2021/04/25 12:44:37;;;;;;;0.73;0.57;;;11.20;99.90;;;;;;5051561;28;20232;-83
2021/04/25 12:47:04;;;;;;;0.87;0.87;;;11.60;99.90;;;;;;5069624;28;20192;-84
2021/04/25 12:49:37;;;;;;;7.40;1.40;;;12.20;99.90;;;;;;5051856;28;20250;-83
2021/04/25 12:52:04;;;;;;;1.00;0.70;;;12.30;99.90;;;;;;5051151;28;20221;-81
2021/04/25 12:54:39;;;;;;;2.93;2.00;;;11.90;99.90;;;;;;5021825;28;20262;-85
2021/04/25 12:57:05;;;;;;;1.40;1.10;;;11.70;99.90;;;;;;5052719;28;20216;-84
2021/04/25 12:59:34;;;;;;;3.17;0.80;;;11.90;99.90;;;;;;5070936;28;20262;-81
2021/04/25 13:02:00;;;;;;;0.70;0.63;;;12.00;99.90;;;;;;5054530;28;20174;-82
2021/04/25 13:04:40;;;;;;;1.10;1.07;;;11.60;99.90;;;;;;5054175;28;20735;-82